createdAt,value
2024-05-09T00:00:26.494Z,94
2024-05-09T00:01:31.955Z,94
2024-05-09T00:02:33.648Z,94.1
2024-05-09T00:03:36.050Z,94.2
2024-05-09T00:04:38.372Z,94.3
2024-05-09T00:05:40.547Z,94.5
2024-05-09T00:06:41.625Z,94.7
2024-05-09T00:07:44.489Z,94.8
2024-05-09T00:08:46.496Z,94.8
2024-05-09T00:09:47.639Z,94.8
2024-05-09T00:10:49.903Z,94.6
2024-05-09T00:11:52.225Z,94.6
2024-05-09T00:12:53.613Z,94.6
2024-05-09T00:13:55.996Z,94.5
2024-05-09T00:14:57.620Z,94.4
2024-05-09T00:15:59.774Z,94.3
2024-05-09T00:17:02.939Z,94.3
2024-05-09T00:18:04.966Z,94.2
2024-05-09T00:19:06.437Z,94
2024-05-09T00:20:20.589Z,93.9
2024-05-09T00:21:28.398Z,93.8
2024-05-09T00:22:30.368Z,93.8
2024-05-09T00:23:32.665Z,94
2024-05-09T00:24:34.380Z,94.1
2024-05-09T00:25:36.673Z,94.2
2024-05-09T00:26:38.531Z,94.5
2024-05-09T00:27:40.768Z,94.6
2024-05-09T00:28:42.529Z,94.7
2024-05-09T00:29:44.676Z,94.8
2024-05-09T00:30:46.376Z,95
2024-05-09T00:31:50.001Z,95.1
2024-05-09T00:32:52.193Z,95.2
2024-05-09T00:33:53.689Z,95.1
2024-05-09T00:34:54.926Z,95.1
2024-05-09T00:35:56.840Z,95.2
2024-05-09T00:36:58.859Z,95.3
2024-05-09T00:38:01.862Z,95.4
2024-05-09T00:39:02.829Z,95.3
2024-05-09T00:40:07.574Z,94.8
2024-05-09T00:41:13.112Z,94.1
2024-05-09T00:42:14.375Z,94
2024-05-09T00:43:16.349Z,94
2024-05-09T00:44:18.589Z,94
2024-05-09T00:45:20.335Z,93.9
2024-05-09T00:46:22.359Z,93.9
2024-05-09T00:47:25.225Z,93.9
2024-05-09T00:48:27.075Z,94.1
2024-05-09T00:49:28.972Z,94.2
2024-05-09T00:50:37.738Z,94.4
2024-05-09T00:51:38.748Z,94.6
2024-05-09T00:52:40.754Z,94.8
2024-05-09T00:53:42.959Z,95
2024-05-09T00:54:44.725Z,95.1
2024-05-09T00:55:47.067Z,95.2
2024-05-09T00:56:49.626Z,95.4
2024-05-09T00:57:51.724Z,95.5
2024-05-09T00:58:56.820Z,95.5
2024-05-09T00:59:58.573Z,95.4
2024-05-09T01:01:00.991Z,95.4
2024-05-09T01:02:02.920Z,95.4
2024-05-09T01:03:05.481Z,95.7
2024-05-09T01:04:07.186Z,95.9
2024-05-09T01:05:08.751Z,96
2024-05-09T01:06:10.570Z,96
2024-05-09T01:07:12.531Z,96
2024-05-09T01:08:15.118Z,96.1
2024-05-09T01:09:16.538Z,96.2
2024-05-09T01:10:32.250Z,96.2
2024-05-09T01:11:35.768Z,96.3
2024-05-09T01:12:37.410Z,96.2
2024-05-09T01:13:39.294Z,96.2
2024-05-09T01:14:41.295Z,95.9
2024-05-09T01:15:43.335Z,95.7
2024-05-09T01:16:45.421Z,95.3
2024-05-09T01:17:47.914Z,94.9
2024-05-09T01:18:50.167Z,94.6
2024-05-09T01:19:51.735Z,94.4
2024-05-09T01:20:54.430Z,94.2
2024-05-09T01:21:55.264Z,94.2
2024-05-09T01:22:57.680Z,94.5
2024-05-09T01:23:59.330Z,94.8
2024-05-09T01:25:01.308Z,95
2024-05-09T01:26:03.730Z,94.9
2024-05-09T01:27:05.290Z,94.9
2024-05-09T01:28:07.686Z,95
2024-05-09T01:29:09.712Z,95.1
2024-05-09T01:30:21.336Z,95.3
2024-05-09T01:31:28.257Z,95.4
2024-05-09T01:32:30.772Z,95.4
2024-05-09T01:33:33.263Z,95.4
2024-05-09T01:34:34.158Z,95.5
2024-05-09T01:35:36.545Z,95.6
2024-05-09T01:36:38.132Z,95.6
2024-05-09T01:37:40.152Z,95.5
2024-05-09T01:38:42.329Z,95.6
2024-05-09T01:39:44.174Z,95.2
2024-05-09T01:40:46.418Z,94.9
2024-05-09T01:41:48.150Z,94.6
2024-05-09T01:42:50.137Z,94.6
2024-05-09T01:43:52.621Z,94.5
2024-05-09T01:44:54.126Z,94.6
2024-05-09T01:45:56.125Z,94.8
2024-05-09T01:46:58.215Z,94.6
2024-05-09T01:48:01.118Z,94.5
2024-05-09T01:49:02.619Z,94.3
2024-05-09T01:50:08.919Z,94.2
2024-05-09T01:51:12.060Z,94.5
2024-05-09T01:52:13.190Z,94.9
2024-05-09T01:53:16.041Z,95
2024-05-09T01:54:17.191Z,95.1
2024-05-09T01:55:20.025Z,95.3
2024-05-09T01:56:21.545Z,95.5
2024-05-09T01:57:23.600Z,95.5
2024-05-09T01:58:25.351Z,95.7
2024-05-09T01:59:27.819Z,95.8
2024-05-09T02:00:40.661Z,95.8
2024-05-09T02:01:57.861Z,95.9
2024-05-09T02:02:59.114Z,96
2024-05-09T02:04:01.196Z,96
2024-05-09T02:05:03.008Z,95.7
2024-05-09T02:06:05.401Z,95.1
2024-05-09T02:07:06.999Z,94.6
2024-05-09T02:08:09.066Z,94.8
2024-05-09T02:09:10.694Z,95
2024-05-09T02:10:23.441Z,95.2
2024-05-09T02:11:31.015Z,95.2
2024-05-09T02:12:33.346Z,95.4
2024-05-09T02:13:34.788Z,95.4
2024-05-09T02:14:37.167Z,95.3
2024-05-09T02:15:38.810Z,95.2
2024-05-09T02:16:40.829Z,94.9
2024-05-09T02:17:43.291Z,95.1
2024-05-09T02:18:45.309Z,95.4
2024-05-09T02:19:46.990Z,95.5
2024-05-09T02:20:49.062Z,95.7
2024-05-09T02:21:50.764Z,95.8
2024-05-09T02:22:52.855Z,95.8
2024-05-09T02:23:54.771Z,95.9
2024-05-09T02:24:56.787Z,95.9
2024-05-09T02:25:59.004Z,95.9
2024-05-09T02:27:00.804Z,95.9
2024-05-09T02:28:02.917Z,96
2024-05-09T02:29:04.902Z,96
2024-05-09T02:30:25.391Z,95.9
2024-05-09T02:31:31.026Z,95.7
2024-05-09T02:32:33.576Z,95.4
2024-05-09T02:33:35.776Z,95.1
2024-05-09T02:34:37.053Z,94.9
2024-05-09T02:35:39.341Z,94.8
2024-05-09T02:36:41.010Z,94.7
2024-05-09T02:37:43.151Z,94.9
2024-05-09T02:38:45.169Z,95.2
2024-05-09T02:39:47.052Z,95.3
2024-05-09T02:40:49.304Z,95.4
2024-05-09T02:41:51.079Z,95.4
2024-05-09T02:42:53.395Z,95.3
2024-05-09T02:43:55.137Z,95.1
2024-05-09T02:44:57.046Z,95.1
2024-05-09T02:45:59.004Z,95.1
2024-05-09T02:47:01.056Z,95
2024-05-09T02:48:03.917Z,95
2024-05-09T02:49:05.499Z,95
2024-05-09T02:50:08.781Z,95.1
2024-05-09T02:51:12.006Z,95.2
2024-05-09T02:52:13.309Z,95.3
2024-05-09T02:53:15.377Z,95.5
2024-05-09T02:54:17.315Z,95.6
2024-05-09T02:55:19.283Z,95.7
2024-05-09T02:56:21.670Z,95.7
2024-05-09T02:57:23.380Z,95.8
2024-05-09T02:58:25.358Z,95.9
2024-05-09T02:59:27.581Z,96
2024-05-09T03:00:40.857Z,96.1
2024-05-09T03:01:43.382Z,96.1
2024-05-09T03:02:45.496Z,96.1
2024-05-09T03:03:47.825Z,96.2
2024-05-09T03:04:49.522Z,96.2
2024-05-09T03:05:51.266Z,96.3
2024-05-09T03:06:52.900Z,96.5
2024-05-09T03:07:55.328Z,96.5
2024-05-09T03:08:56.898Z,96.4
2024-05-09T03:09:58.897Z,96.2
2024-05-09T03:11:01.184Z,96
2024-05-09T03:12:03.414Z,95.7
2024-05-09T03:13:04.958Z,95.4
2024-05-09T03:14:07.405Z,95.3
2024-05-09T03:15:08.882Z,95.2
2024-05-09T03:16:10.898Z,95.1
2024-05-09T03:17:13.186Z,95.2
2024-05-09T03:18:15.581Z,95.3
2024-05-09T03:19:17.378Z,95.3
2024-05-09T03:20:30.313Z,95.3
2024-05-09T03:21:33.845Z,95.4
2024-05-09T03:22:35.867Z,95.3
2024-05-09T03:23:37.872Z,95.3
2024-05-09T03:24:39.819Z,95.4
2024-05-09T03:25:41.837Z,95.4
2024-05-09T03:26:43.837Z,95.5
2024-05-09T03:27:45.822Z,95.6
2024-05-09T03:28:48.156Z,95.5
2024-05-09T03:29:49.854Z,95.5
2024-05-09T03:30:51.830Z,95.6
2024-05-09T03:31:54.312Z,95.7
2024-05-09T03:32:56.387Z,95.5
2024-05-09T03:33:58.273Z,95.5
2024-05-09T03:35:00.193Z,95.6
2024-05-09T03:36:01.848Z,95.6
2024-05-09T03:37:03.808Z,95.5
2024-05-09T03:38:05.981Z,95.4
2024-05-09T03:39:07.817Z,95.2
2024-05-09T03:40:20.821Z,95
2024-05-09T03:41:24.537Z,95
2024-05-09T03:42:26.346Z,95.2
2024-05-09T03:43:28.354Z,95.3
2024-05-09T03:44:30.758Z,95.3
2024-05-09T03:45:32.421Z,95.2
2024-05-09T03:46:34.344Z,95.1
2024-05-09T03:47:36.792Z,95.2
2024-05-09T03:48:38.886Z,95.4
2024-05-09T03:49:40.789Z,95.6
2024-05-09T03:50:42.947Z,95.5
2024-05-09T03:51:44.335Z,95.5
2024-05-09T03:52:46.505Z,95.6
2024-05-09T03:53:48.371Z,95.5
2024-05-09T03:54:50.353Z,95.6
2024-05-09T03:55:52.572Z,95.6
2024-05-09T03:56:54.324Z,95.7
2024-05-09T03:57:56.335Z,95.8
2024-05-09T03:58:58.380Z,95.9
2024-05-09T04:00:00.480Z,96.1
2024-05-09T04:01:02.695Z,96.2
2024-05-09T04:02:04.645Z,96.4
2024-05-09T04:03:11.051Z,96.3
2024-05-09T04:04:13.032Z,96.3
2024-05-09T04:05:15.086Z,96.1
2024-05-09T04:06:16.931Z,95.8
2024-05-09T04:07:18.929Z,95.5
2024-05-09T04:08:21.371Z,95.5
2024-05-09T04:09:22.950Z,95.7
2024-05-09T04:10:34.463Z,95.9
2024-05-09T04:11:36.054Z,95.9
2024-05-09T04:12:37.775Z,95.9
2024-05-09T04:13:39.631Z,96
2024-05-09T04:14:41.886Z,96
2024-05-09T04:15:43.599Z,96.1
2024-05-09T04:16:45.774Z,96.1
2024-05-09T04:17:48.112Z,96.2
2024-05-09T04:18:50.183Z,96.2
2024-05-09T04:19:51.956Z,96.2
2024-05-09T04:20:53.885Z,96.2
2024-05-09T04:21:55.624Z,96.2
2024-05-09T04:22:57.664Z,96.1
2024-05-09T04:23:59.587Z,95.9
2024-05-09T04:25:01.600Z,95.8
2024-05-09T04:26:03.848Z,95.8
2024-05-09T04:27:05.887Z,95.5
2024-05-09T04:28:07.621Z,95.3
2024-05-09T04:29:09.709Z,95.1
2024-05-09T04:30:30.139Z,95.1
2024-05-09T04:31:37.104Z,95.2
2024-05-09T04:32:39.666Z,95.3
2024-05-09T04:33:41.628Z,95.5
2024-05-09T04:34:43.094Z,95.3
2024-05-09T04:35:46.032Z,95.3
2024-05-09T04:36:47.108Z,95.1
2024-05-09T04:37:49.229Z,95
2024-05-09T04:38:51.067Z,95
2024-05-09T04:39:53.085Z,95
2024-05-09T04:40:55.389Z,95
2024-05-09T04:41:57.112Z,94.8
2024-05-09T04:42:59.068Z,94.9
2024-05-09T04:44:01.231Z,95
2024-05-09T04:45:03.101Z,95.2
2024-05-09T04:46:05.092Z,95.3
2024-05-09T04:47:07.394Z,95.3
2024-05-09T04:48:09.932Z,95.2
2024-05-09T04:49:11.551Z,95.2
2024-05-09T04:50:25.647Z,95.1
2024-05-09T04:51:34.347Z,95.3
2024-05-09T04:52:36.355Z,95.5
2024-05-09T04:53:38.765Z,95.6
2024-05-09T04:54:40.353Z,95.7
2024-05-09T04:55:42.528Z,95.8
2024-05-09T04:56:44.736Z,95.8
2024-05-09T04:57:46.341Z,95.8
2024-05-09T04:58:49.552Z,95.9
2024-05-09T04:59:51.614Z,95.9
2024-05-09T05:00:52.591Z,95.7
2024-05-09T05:01:54.875Z,95.3
2024-05-09T05:02:56.662Z,94.9
2024-05-09T05:03:59.270Z,94.7
2024-05-09T05:05:00.934Z,94.7
2024-05-09T05:06:02.783Z,94.8
2024-05-09T05:07:04.343Z,94.9
2024-05-09T05:08:06.589Z,95.2
2024-05-09T05:09:08.374Z,95.5
2024-05-09T05:10:21.518Z,95.8
2024-05-09T05:11:26.608Z,96
2024-05-09T05:12:28.713Z,96.2
2024-05-09T05:13:30.193Z,96.3
2024-05-09T05:14:32.453Z,96.3
2024-05-09T05:15:34.191Z,96.3
2024-05-09T05:16:36.194Z,96.3
2024-05-09T05:17:39.170Z,96.3
2024-05-09T05:18:40.454Z,96.5
2024-05-09T05:19:43.369Z,96.4
2024-05-09T05:20:45.688Z,96.4
2024-05-09T05:21:47.346Z,96.3
2024-05-09T05:22:48.386Z,96.2
2024-05-09T05:23:50.297Z,96
2024-05-09T05:24:52.215Z,95.9
2024-05-09T05:25:55.338Z,95.9
2024-05-09T05:26:56.180Z,95.7
2024-05-09T05:27:58.530Z,95.7
2024-05-09T05:29:00.295Z,95.7
2024-05-09T05:30:02.343Z,95.7
2024-05-09T05:31:04.187Z,95.7
2024-05-09T05:32:06.535Z,95.7
2024-05-09T05:33:08.535Z,95.6
2024-05-09T05:34:10.235Z,95.6
2024-05-09T05:35:13.533Z,95.5
2024-05-09T05:36:14.191Z,95.5
2024-05-09T05:37:16.193Z,95.5
2024-05-09T05:38:18.781Z,95.5
2024-05-09T05:39:20.170Z,95.5
2024-05-09T05:40:36.011Z,95.5
2024-05-09T05:41:38.778Z,95.5
2024-05-09T05:42:40.381Z,95.5
2024-05-09T05:43:42.392Z,95.6
2024-05-09T05:44:44.393Z,95.7
2024-05-09T05:45:46.428Z,95.8
2024-05-09T05:46:48.542Z,95.8
2024-05-09T05:47:51.255Z,95.9
2024-05-09T05:48:52.958Z,95.9
2024-05-09T05:49:54.588Z,95.7
2024-05-09T05:50:57.588Z,95.5
2024-05-09T05:51:58.628Z,95.3
2024-05-09T05:53:01.107Z,95.2
2024-05-09T05:54:02.624Z,95.3
2024-05-09T05:55:04.630Z,95.3
2024-05-09T05:56:06.942Z,95.3
2024-05-09T05:57:08.622Z,95
2024-05-09T05:58:10.878Z,94.9
2024-05-09T05:59:15.835Z,94.8
2024-05-09T06:00:34.333Z,94.8
2024-05-09T06:01:38.826Z,94.7
2024-05-09T06:02:40.891Z,94.6
2024-05-09T06:03:42.932Z,94.6
2024-05-09T06:04:44.566Z,94.5
2024-05-09T06:05:46.881Z,94.4
2024-05-09T06:06:48.341Z,94.3
2024-05-09T06:07:50.414Z,94.2
2024-05-09T06:08:52.516Z,94.3
2024-05-09T06:09:54.330Z,94.5
2024-05-09T06:10:56.600Z,94.6
2024-05-09T06:11:58.674Z,94.6
2024-05-09T06:13:00.322Z,94.6
2024-05-09T06:14:02.565Z,94.6
2024-05-09T06:15:04.311Z,94.7
2024-05-09T06:16:06.332Z,94.6
2024-05-09T06:17:08.676Z,94.6
2024-05-09T06:18:12.835Z,94.6
2024-05-09T06:19:14.152Z,94.5
2024-05-09T06:20:31.197Z,94.5
2024-05-09T06:21:36.126Z,94.4
2024-05-09T06:22:37.826Z,94.3
2024-05-09T06:23:40.310Z,94.4
2024-05-09T06:24:41.796Z,94.2
2024-05-09T06:25:43.841Z,92.6
2024-05-09T06:26:45.787Z,93
2024-05-09T06:27:47.824Z,93.4
2024-05-09T06:28:49.845Z,93
2024-05-09T06:29:51.793Z,92.8
2024-05-09T06:30:53.808Z,92.9
2024-05-09T06:32:00.080Z,92.9
2024-05-09T06:33:01.332Z,92.7
2024-05-09T06:34:03.336Z,92.8
2024-05-09T06:35:05.055Z,92.8
2024-05-09T06:36:06.868Z,92.9
2024-05-09T06:37:09.243Z,93.3
2024-05-09T06:38:12.585Z,93.3
2024-05-09T06:39:13.190Z,93.2
2024-05-09T06:40:25.768Z,92.6
2024-05-09T06:41:34.955Z,92
2024-05-09T06:42:36.522Z,90.1
2024-05-09T06:43:38.495Z,89.6
2024-05-09T06:44:40.775Z,89
2024-05-09T06:45:43.915Z,89.2
2024-05-09T06:46:44.909Z,88.3
2024-05-09T06:47:46.988Z,87.4
2024-05-09T06:48:49.602Z,86.6
2024-05-09T06:49:51.040Z,86.5
2024-05-09T06:50:52.868Z,85.2
2024-05-09T06:51:54.500Z,83.3
2024-05-09T06:52:56.897Z,81.4
2024-05-09T06:53:58.537Z,80.1
2024-05-09T06:55:00.653Z,80.8
2024-05-09T06:56:02.736Z,78.1
2024-05-09T06:57:04.519Z,75.1
2024-05-09T06:58:07.309Z,74.6
2024-05-09T06:59:08.596Z,76.5
2024-05-09T07:00:22.430Z,75.2
2024-05-09T07:01:28.354Z,72.9
2024-05-09T07:02:30.197Z,72.5
2024-05-09T07:03:32.240Z,72.6
2024-05-09T07:04:34.930Z,72
2024-05-09T07:05:37.164Z,70
2024-05-09T07:06:38.314Z,69.6
2024-05-09T07:07:40.330Z,68.6
2024-05-09T07:08:43.101Z,68.4
2024-05-09T07:09:45.347Z,68.2
2024-05-09T07:10:50.995Z,65.6
2024-05-09T07:11:52.027Z,67.2
2024-05-09T07:12:53.612Z,66.5
2024-05-09T07:13:55.795Z,60.7
2024-05-09T07:14:57.639Z,59
2024-05-09T07:15:59.593Z,61.9
2024-05-09T07:17:01.998Z,63.5
2024-05-09T07:18:04.150Z,63.9
2024-05-09T07:19:06.171Z,65.1
2024-05-09T07:20:19.803Z,63.7
2024-05-09T07:21:27.975Z,62.8
2024-05-09T07:22:29.619Z,63.8
2024-05-09T07:23:31.808Z,62.7
2024-05-09T07:24:33.618Z,63.4
2024-05-09T07:25:35.912Z,64.9
2024-05-09T07:26:38.019Z,63
2024-05-09T07:27:39.622Z,60.2
2024-05-09T07:28:41.633Z,62.4
2024-05-09T07:29:43.831Z,62.7
2024-05-09T07:30:45.609Z,60.1
2024-05-09T07:31:47.942Z,60.7
2024-05-09T07:32:50.434Z,60.9
2024-05-09T07:33:51.759Z,58.1
2024-05-09T07:34:53.807Z,60.7
2024-05-09T07:35:55.594Z,60.1
2024-05-09T07:36:57.595Z,55.9
2024-05-09T07:37:59.962Z,56.6
2024-05-09T07:39:01.614Z,58.3
2024-05-09T07:40:07.607Z,56.1
2024-05-09T07:41:08.615Z,57.2
2024-05-09T07:42:10.220Z,56
2024-05-09T07:43:15.454Z,55.2
2024-05-09T07:44:16.211Z,58
2024-05-09T07:45:29.796Z,55.7
2024-05-09T07:49:13.420Z,54
2024-05-09T07:53:39.382Z,54.6
2024-05-09T07:54:45.205Z,54
2024-05-09T07:55:47.089Z,53.9
2024-05-09T07:56:49.121Z,54.1
2024-05-09T07:57:50.983Z,55.3
2024-05-09T07:58:53.638Z,52.3
2024-05-09T07:59:54.734Z,52.4
2024-05-09T08:00:57.174Z,52.5
2024-05-09T08:01:58.949Z,53.1
2024-05-09T08:03:01.029Z,53
2024-05-09T08:04:03.094Z,54.2
2024-05-09T08:05:05.186Z,54.5
2024-05-09T08:06:06.935Z,49
2024-05-09T08:07:09.548Z,50.9
2024-05-09T08:08:11.759Z,52.8
2024-05-09T08:09:21.200Z,51.8
2024-05-09T08:10:29.190Z,51.3
2024-05-09T08:11:29.960Z,50.2
2024-05-09T08:12:32.071Z,52
2024-05-09T08:13:33.931Z,50
2024-05-09T08:14:35.894Z,53.1
2024-05-09T08:15:38.240Z,51
2024-05-09T08:16:39.901Z,51.4
2024-05-09T08:17:42.394Z,53.7
2024-05-09T08:18:44.141Z,47.5
2024-05-09T08:19:46.487Z,50.6
2024-05-09T08:20:47.904Z,51.8
2024-05-09T08:21:50.292Z,48
2024-05-09T08:22:53.108Z,51.9
2024-05-09T08:23:53.908Z,51.7
2024-05-09T08:24:56.653Z,52.2
2024-05-09T08:25:58.424Z,48.5
2024-05-09T08:26:59.910Z,50.4
2024-05-09T08:28:02.314Z,51.5
2024-05-09T08:29:06.056Z,51.9
2024-05-09T08:30:15.393Z,48.3
2024-05-09T08:31:22.619Z,48
2024-05-09T08:32:24.073Z,48.8
2024-05-09T08:33:27.010Z,48.6
2024-05-09T08:34:31.578Z,48.7
2024-05-09T08:35:32.887Z,50.4
2024-05-09T08:36:34.385Z,50.5
2024-05-09T08:37:40.838Z,51.3
2024-05-09T08:38:41.515Z,51.2
2024-05-09T08:39:43.886Z,51.2
2024-05-09T08:40:46.143Z,51.8
2024-05-09T08:41:52.264Z,55.4
2024-05-09T08:42:53.130Z,53.6
2024-05-09T08:43:54.637Z,53.9
2024-05-09T08:44:57.449Z,52.1
2024-05-09T08:45:59.600Z,51.6
2024-05-09T08:47:00.550Z,51.3
2024-05-09T08:48:03.019Z,52.1
2024-05-09T08:49:05.388Z,51.7
2024-05-09T08:50:19.913Z,52.6
2024-05-09T08:51:25.221Z,46.3
2024-05-09T08:52:26.884Z,48.7
2024-05-09T08:53:30.191Z,48.3
2024-05-09T08:54:31.105Z,47.5
2024-05-09T08:55:32.876Z,49.6
2024-05-09T08:56:34.873Z,49.8
2024-05-09T08:57:37.262Z,49.7
2024-05-09T08:58:38.858Z,50.9
2024-05-09T08:59:41.386Z,50.6
2024-05-09T09:00:43.221Z,51.6
2024-05-09T09:01:45.285Z,50.9
2024-05-09T09:02:47.230Z,49.7
2024-05-09T09:03:50.233Z,48.6
2024-05-09T09:04:52.553Z,49.4
2024-05-09T09:05:53.758Z,52.3
2024-05-09T09:06:59.751Z,44.6
2024-05-09T09:08:00.821Z,48
2024-05-09T09:09:03.539Z,47.7
2024-05-09T09:10:08.828Z,44.6
2024-05-09T09:11:10.059Z,43.6
2024-05-09T09:12:11.533Z,45.3
2024-05-09T09:13:13.599Z,43.9
2024-05-09T09:14:15.681Z,45.7
2024-05-09T09:15:17.719Z,47
2024-05-09T09:16:20.777Z,45.8
2024-05-09T09:17:22.116Z,47.7
2024-05-09T09:18:24.214Z,47.4
2024-05-09T09:19:26.095Z,47.6
2024-05-09T09:20:36.982Z,46.3
2024-05-09T09:21:38.095Z,45.8
2024-05-09T09:22:39.674Z,47.2
2024-05-09T09:23:41.763Z,49.2
2024-05-09T09:24:43.904Z,49.3
2024-05-09T09:25:45.688Z,50.3
2024-05-09T09:26:47.648Z,49.4
2024-05-09T09:27:49.671Z,46.5
2024-05-09T09:28:51.653Z,46.9
2024-05-09T09:29:53.646Z,46.2
2024-05-09T09:30:55.940Z,46.1
2024-05-09T09:31:57.639Z,44
2024-05-09T09:33:00.093Z,46.9
2024-05-09T09:34:02.270Z,45.2
2024-05-09T09:35:03.817Z,47.3
2024-05-09T09:36:10.408Z,47.9
2024-05-09T09:37:12.310Z,49.5
2024-05-09T09:38:13.873Z,47.8
2024-05-09T09:39:15.861Z,44.4
2024-05-09T09:40:22.006Z,46.9
2024-05-09T09:41:22.534Z,47.2
2024-05-09T09:42:24.550Z,47.2
2024-05-09T09:43:26.737Z,46
2024-05-09T09:44:28.562Z,46.1
2024-05-09T09:45:31.044Z,47.6
2024-05-09T09:46:33.211Z,46.9
2024-05-09T09:47:34.770Z,46.5
2024-05-09T09:48:37.009Z,47.1
2024-05-09T09:49:38.788Z,47.1
2024-05-09T09:50:40.533Z,46.1
2024-05-09T09:51:43.787Z,47.1
2024-05-09T09:52:45.506Z,50.1
2024-05-09T09:53:46.560Z,46.7
2024-05-09T09:54:48.760Z,46.5
2024-05-09T09:55:50.546Z,46.8
2024-05-09T09:56:52.541Z,46.8
2024-05-09T09:57:54.996Z,49.2
2024-05-09T09:58:56.545Z,47.8
2024-05-09T09:59:58.529Z,47.2
2024-05-09T10:01:00.937Z,49.3
2024-05-09T10:02:03.240Z,50
2024-05-09T10:03:04.862Z,52.3
2024-05-09T10:04:06.752Z,53.1
2024-05-09T10:05:09.001Z,53.5
2024-05-09T10:06:10.773Z,54
2024-05-09T10:07:13.080Z,54
2024-05-09T10:08:14.797Z,54.4
2024-05-09T10:09:16.899Z,53.5
2024-05-09T10:10:30.267Z,54.5
2024-05-09T10:11:45.375Z,53.5
2024-05-09T10:12:49.746Z,55
2024-05-09T10:13:52.367Z,56.3
2024-05-09T10:14:53.679Z,55.1
2024-05-09T10:15:55.935Z,53.7
2024-05-09T10:16:57.705Z,55.5
2024-05-09T10:18:00.136Z,56
2024-05-09T10:19:02.159Z,56.6
2024-05-09T10:20:14.647Z,54.4
2024-05-09T10:21:21.851Z,55.6
2024-05-09T10:22:24.074Z,53.5
2024-05-09T10:23:26.496Z,53.4
2024-05-09T10:24:31.668Z,55.7
2024-05-09T10:25:32.568Z,57.7
2024-05-09T10:26:34.860Z,57.6
2024-05-09T10:27:36.391Z,55.8
2024-05-09T10:28:38.384Z,56
2024-05-09T10:29:40.435Z,55.6
2024-05-09T10:30:44.485Z,55.8
2024-05-09T10:31:46.568Z,57.4
2024-05-09T10:32:48.484Z,57.3
2024-05-09T10:33:53.089Z,57.4
2024-05-09T10:34:54.088Z,56.8
2024-05-09T10:35:55.870Z,57.6
2024-05-09T10:36:58.666Z,58.2
2024-05-09T10:37:59.838Z,57.7
2024-05-09T10:39:01.823Z,58
2024-05-09T10:40:14.046Z,56.1
2024-05-09T10:41:18.086Z,55.8
2024-05-09T10:42:20.053Z,55.7
2024-05-09T10:43:23.465Z,56
2024-05-09T10:44:24.261Z,55.9
2024-05-09T10:45:26.058Z,49.2
2024-05-09T10:46:28.216Z,50.5
2024-05-09T10:47:30.475Z,49.6
2024-05-09T10:48:32.665Z,46.5
2024-05-09T10:49:34.266Z,51
2024-05-09T10:50:36.295Z,51
2024-05-09T10:51:38.364Z,51.5
2024-05-09T10:52:40.825Z,52.8
2024-05-09T10:53:42.025Z,50.7
2024-05-09T10:54:44.244Z,52.1
2024-05-09T10:55:46.041Z,52.2
2024-05-09T10:56:48.019Z,52.4
2024-05-09T10:57:50.184Z,52.2
2024-05-09T10:58:52.107Z,51.3
2024-05-09T10:59:54.060Z,50.9
2024-05-09T11:00:56.803Z,49.7
2024-05-09T11:01:58.285Z,49
2024-05-09T11:03:00.417Z,47.4
2024-05-09T11:04:02.945Z,49
2024-05-09T11:05:04.554Z,47.5
2024-05-09T11:06:06.332Z,47.8
2024-05-09T11:07:08.341Z,49.3
2024-05-09T11:08:10.040Z,47.2
2024-05-09T11:09:12.418Z,46.7
2024-05-09T11:10:24.470Z,45.7
2024-05-09T11:11:28.182Z,42.9
2024-05-09T11:12:29.988Z,44.2
2024-05-09T11:13:32.555Z,43.6
2024-05-09T11:14:33.868Z,44.5
2024-05-09T11:15:36.101Z,44.9
2024-05-09T11:16:39.274Z,44.3
2024-05-09T11:17:40.255Z,43.7
2024-05-09T11:18:42.645Z,44.9
2024-05-09T11:19:43.969Z,47.1
2024-05-09T11:20:46.094Z,48.2
2024-05-09T11:21:48.112Z,47.7
2024-05-09T11:22:49.890Z,48.9
2024-05-09T11:23:52.189Z,49.7
2024-05-09T11:24:53.979Z,46.9
2024-05-09T11:25:55.986Z,48.6
2024-05-09T11:26:58.133Z,48.2
2024-05-09T11:28:00.125Z,48.2
2024-05-09T11:29:02.994Z,49.7
2024-05-09T11:30:11.472Z,49.8
2024-05-09T11:31:14.231Z,51.2
2024-05-09T11:32:15.200Z,47.5
2024-05-09T11:33:17.154Z,46.6
2024-05-09T11:34:18.988Z,49.4
2024-05-09T11:35:20.820Z,47.9
2024-05-09T11:36:22.866Z,46.9
2024-05-09T11:37:25.098Z,47.8
2024-05-09T11:38:27.101Z,46.9
2024-05-09T11:39:29.217Z,48.6
2024-05-09T11:40:35.030Z,50.5
2024-05-09T11:41:35.839Z,51.4
2024-05-09T11:42:37.789Z,49
2024-05-09T11:43:39.675Z,51
2024-05-09T11:44:41.665Z,51.3
2024-05-09T11:45:44.787Z,51.2
2024-05-09T11:46:45.671Z,50
2024-05-09T11:47:48.189Z,49.6
2024-05-09T11:48:50.293Z,49.7
2024-05-09T11:49:51.871Z,49.9
2024-05-09T11:50:53.728Z,49.1
2024-05-09T11:51:56.040Z,50.2
2024-05-09T11:52:57.642Z,48.7
2024-05-09T11:53:59.826Z,47.7
2024-05-09T11:55:01.899Z,49.2
2024-05-09T11:56:04.015Z,48.7
2024-05-09T11:57:05.645Z,51.2
2024-05-09T11:58:08.001Z,52.5
2024-05-09T11:59:09.651Z,54
2024-05-09T12:00:24.492Z,53.4
2024-05-09T12:01:30.175Z,54.1
2024-05-09T12:02:32.027Z,53.7
2024-05-09T12:03:34.012Z,53.3
2024-05-09T12:04:36.133Z,53.6
2024-05-09T12:05:38.154Z,54.2
2024-05-09T12:06:39.804Z,53.1
2024-05-09T12:07:41.794Z,52.8
2024-05-09T12:08:43.787Z,52.2
2024-05-09T12:09:45.861Z,52.7
2024-05-09T12:10:48.166Z,51.8
2024-05-09T12:11:50.097Z,53.1
2024-05-09T12:12:51.767Z,52.9
2024-05-09T12:13:53.749Z,54
2024-05-09T12:14:55.733Z,53.4
2024-05-09T12:15:58.276Z,52.6
2024-05-09T12:17:00.036Z,53.7
2024-05-09T12:18:04.765Z,53.7
2024-05-09T12:19:05.876Z,54.5
2024-05-09T12:20:17.551Z,51.4
2024-05-09T12:21:26.365Z,52.4
2024-05-09T12:22:28.021Z,53
2024-05-09T12:23:30.029Z,53.6
2024-05-09T12:24:32.245Z,53.1
2024-05-09T12:25:34.291Z,53.2
2024-05-09T12:26:36.009Z,55.5
2024-05-09T12:27:38.404Z,55.2
2024-05-09T12:28:40.025Z,54.3
2024-05-09T12:29:42.004Z,51.6
2024-05-09T12:30:44.279Z,50.1
2024-05-09T12:31:46.371Z,50.2
2024-05-09T12:32:48.483Z,51.7
2024-05-09T12:33:50.525Z,50.8
2024-05-09T12:34:51.995Z,48.3
2024-05-09T12:35:54.309Z,49.7
2024-05-09T12:36:56.338Z,50.7
2024-05-09T12:37:58.127Z,50.4
2024-05-09T12:39:00.002Z,47.7
2024-05-09T12:40:03.956Z,47.2
2024-05-09T12:41:07.584Z,48
2024-05-09T12:42:19.356Z,45.9
2024-05-09T12:43:27.117Z,45
2024-05-09T12:44:28.356Z,46.8
2024-05-09T12:45:30.555Z,45.4
2024-05-09T12:46:33.025Z,46
2024-05-09T12:47:34.728Z,46.7
2024-05-09T12:48:36.881Z,46.4
2024-05-09T12:49:38.853Z,43.2
2024-05-09T12:50:41.042Z,43.1
2024-05-09T12:51:43.704Z,42.7
2024-05-09T12:52:44.347Z,43
2024-05-09T12:53:46.360Z,44
2024-05-09T12:54:48.595Z,44.5
2024-05-09T12:56:01.576Z,46.1
2024-05-09T12:57:02.932Z,45.5
2024-05-09T12:58:05.394Z,46.9
2024-05-09T12:59:06.905Z,47.2
2024-05-09T13:00:23.846Z,44.9
2024-05-09T13:01:29.116Z,49
2024-05-09T13:02:31.154Z,49.5
2024-05-09T13:03:33.313Z,48.3
2024-05-09T13:04:35.257Z,47.5
2024-05-09T13:05:37.062Z,48
2024-05-09T13:06:38.937Z,51
2024-05-09T13:07:40.634Z,50.7
2024-05-09T13:08:42.999Z,51.5
2024-05-09T13:09:48.207Z,48.6
2024-05-09T13:10:49.485Z,49.5
2024-05-09T13:11:50.986Z,50
2024-05-09T13:12:52.889Z,49.1
2024-05-09T13:13:54.999Z,50.6
2024-05-09T13:14:57.783Z,52
2024-05-09T13:15:59.066Z,54
2024-05-09T13:17:01.114Z,53
2024-05-09T13:18:04.941Z,53.5
2024-05-09T13:19:05.479Z,54.7
2024-05-09T13:20:22.448Z,54.5
2024-05-09T13:21:28.223Z,51.6
2024-05-09T13:22:28.814Z,51.3
2024-05-09T13:23:30.814Z,48.6
2024-05-09T13:24:32.971Z,49.2
2024-05-09T13:25:36.200Z,50.1
2024-05-09T13:26:37.406Z,51.2
2024-05-09T13:27:39.675Z,51.8
2024-05-09T13:28:40.862Z,53
2024-05-09T13:29:44.758Z,51.5
2024-05-09T13:30:45.381Z,51.2
2024-05-09T13:31:47.098Z,50.7
2024-05-09T13:32:49.685Z,50.5
2024-05-09T13:33:51.524Z,51
2024-05-09T13:34:53.212Z,50.5
2024-05-09T13:35:55.211Z,50.9
2024-05-09T13:36:57.304Z,50.8
2024-05-09T13:37:59.151Z,46.5
2024-05-09T13:39:01.074Z,48.8
2024-05-09T13:40:07.202Z,48.6
2024-05-09T13:41:09.223Z,48.9
2024-05-09T13:42:10.584Z,49.2
2024-05-09T13:43:12.225Z,48.5
2024-05-09T13:44:18.987Z,45.7
2024-05-09T13:45:20.747Z,47.3
2024-05-09T13:46:22.587Z,46.7
2024-05-09T13:47:24.301Z,47.2
2024-05-09T13:48:26.395Z,48.4
2024-05-09T13:49:28.336Z,49
2024-05-09T13:50:36.689Z,49.5
2024-05-09T13:51:38.954Z,49.2
2024-05-09T13:52:40.421Z,49.6
2024-05-09T13:53:41.855Z,49
2024-05-09T13:54:44.431Z,45.5
2024-05-09T13:55:45.852Z,44
2024-05-09T13:56:47.784Z,43.8
2024-05-09T13:57:49.847Z,39.8
2024-05-09T13:58:52.046Z,41.2
2024-05-09T13:59:53.785Z,39.9
2024-05-09T14:00:56.327Z,41.7
2024-05-09T14:01:58.017Z,40.9
2024-05-09T14:03:00.122Z,39.6
2024-05-09T14:04:02.221Z,38.3
2024-05-09T14:05:05.120Z,37.5
2024-05-09T14:06:10.518Z,36.4
2024-05-09T14:07:12.952Z,38.9
2024-05-09T14:08:14.740Z,38.6